Time;durP1;ratioP1;P1;durP2;ratioP2;P2;SDS_P1;SDS_P2;PMS_P1;PMS_P2;Temp;Humidity;BMP_temperature;BMP_pressure;BME280_temperature;BME280_humidity;BME280_pressure;Samples;Min_cycle;Max_cycle;Signal;HPM_P1;HPM_P2
2022/12/22 03:25:53;;;;;;;4.03;3.42;;;;;;;16.21;54.91;97017.91;5012503;28;20080;-30
2022/12/22 03:28:28;;;;;;;4.95;3.25;;;;;;;16.17;54.88;97012.59;5012419;28;20034;-30
2022/12/22 03:30:56;;;;;;;3.72;3.13;;;;;;;16.21;54.77;97014.41;5012457;28;20021;-30
2022/12/22 03:33:22;;;;;;;4.28;3.50;;;;;;;16.21;54.85;97017.13;4992812;28;20073;-30
2022/12/22 03:35:48;;;;;;;3.45;2.92;;;;;;;16.24;54.70;97032.66;5012167;28;20030;-30
2022/12/22 03:38:13;;;;;;;4.50;3.50;;;;;;;16.17;54.98;97036.44;5012224;28;20024;-30
2022/12/22 03:40:38;;;;;;;3.92;3.50;;;;;;;16.24;54.72;97025.22;5012380;28;20030;-30
2022/12/22 03:48:37;;;;;;;4.65;3.28;;;;;;;16.18;55.06;97021.56;5001453;28;20041;-30
2022/12/22 03:51:03;;;;;;;3.78;2.95;;;;;;;16.22;54.92;97021.41;5012160;28;20025;-30
2022/12/22 03:53:28;;;;;;;5.03;3.05;;;;;;;16.23;54.72;97020.19;5012987;28;20049;-30
2022/12/22 03:55:54;;;;;;;4.70;3.05;;;;;;;16.19;54.83;97014.88;5014308;28;20018;-30
2022/12/22 03:58:19;;;;;;;3.20;2.85;;;;;;;16.25;54.70;97015.03;5014289;28;20390;-30
2022/12/22 04:00:45;;;;;;;3.47;3.00;;;;;;;16.19;55.00;97008.63;5013986;28;20237;-30
2022/12/22 04:03:10;;;;;;;3.72;3.25;;;;;;;16.13;54.98;97011.94;5014054;28;20103;-30
2022/12/22 04:05:36;;;;;;;5.25;3.28;;;;;;;16.16;55.14;97013.78;5013368;28;20021;-30
2022/12/22 04:08:01;;;;;;;4.63;3.03;;;;;;;16.19;55.00;97014.88;5014041;28;20024;-30
2022/12/22 04:13:12;;;;;;;4.70;2.97;;;;;;;16.23;55.03;96999.06;5013809;28;20033;-30
2022/12/22 04:15:37;;;;;;;5.82;3.10;;;;;;;16.20;55.08;97004.66;5013829;28;20028;-30
2022/12/22 04:18:03;;;;;;;3.35;2.88;;;;;;;16.13;55.15;97001.00;5003639;28;20026;-30
2022/12/22 04:20:28;;;;;;;3.60;2.85;;;;;;;16.14;55.26;96994.31;5011319;28;20018;-30
2022/12/22 04:22:55;;;;;;;3.58;3.00;;;;;;;16.21;55.03;97000.72;5003230;28;20030;-30
2022/12/22 04:25:21;;;;;;;3.45;3.15;;;;;;;16.21;55.02;96997.97;5011439;28;20029;-30
2022/12/22 04:27:47;;;;;;;4.80;3.40;;;;;;;16.15;55.07;97001.31;5013519;28;20119;-30
2022/12/22 04:30:13;;;;;;;3.45;2.88;;;;;;;16.14;55.16;97004.50;5013420;28;20061;-30
2022/12/22 04:32:38;;;;;;;4.35;3.20;;;;;;;16.16;54.90;97008.31;5013489;28;20054;-30
2022/12/22 04:35:05;;;;;;;4.05;3.03;;;;;;;16.16;55.15;97008.31;5015988;28;20109;-30
2022/12/22 04:37:31;;;;;;;3.95;3.00;;;;;;;16.10;55.14;97014.81;5013481;28;20036;-30
2022/12/22 04:39:56;;;;;;;4.38;3.50;;;;;;;16.10;55.33;97015.56;5013440;28;20022;-30
2022/12/22 04:42:22;;;;;;;5.47;3.28;;;;;;;16.12;55.30;97018.63;5013728;28;20383;-30
2022/12/22 04:44:48;;;;;;;3.60;3.00;;;;;;;16.09;55.15;97024.22;5013413;28;20029;-30
2022/12/22 04:47:13;;;;;;;4.75;3.15;;;;;;;16.14;55.13;97016.22;5013593;28;20026;-30
2022/12/22 04:49:39;;;;;;;4.93;3.63;;;;;;;16.06;55.26;97014.97;5013128;28;20009;-30
2022/12/22 04:52:04;;;;;;;3.90;3.20;;;;;;;16.09;55.36;97014.03;5013683;28;20026;-30
2022/12/22 04:54:30;;;;;;;3.85;2.92;;;;;;;16.05;55.18;97010.69;5013231;28;20060;-30
2022/12/22 04:56:55;;;;;;;4.25;3.30;;;;;;;16.12;55.07;97018.63;5013722;28;20033;-30
2022/12/22 04:59:21;;;;;;;4.20;3.33;;;;;;;16.15;54.97;97023.22;5013058;28;20026;-30
2022/12/22 05:01:46;;;;;;;4.43;3.47;;;;;;;16.05;55.27;97018.91;5013483;28;20026;-30
2022/12/22 05:04:12;;;;;;;5.07;3.50;;;;;;;16.01;55.37;97012.78;5013198;28;20034;-30
2022/12/22 05:06:37;;;;;;;5.20;3.22;;;;;;;16.03;55.20;97001.41;5013193;28;20494;-30
2022/12/22 05:09:03;;;;;;;3.65;3.03;;;;;;;16.07;55.17;96999.31;5013360;28;20072;-30
2022/12/22 05:11:28;;;;;;;4.70;3.75;;;;;;;16.07;55.14;97000.03;5013181;28;20057;-30
2022/12/22 05:13:54;;;;;;;5.15;3.58;;;;;;;16.14;55.00;96997.06;5013322;28;20022;-30
2022/12/22 05:16:20;;;;;;;6.22;3.70;;;;;;;16.10;55.11;96993.69;5013419;28;20137;-30
2022/12/22 05:18:46;;;;;;;5.63;3.65;;;;;;;16.11;55.11;97006.16;5014922;28;20024;-30
2022/12/22 05:21:19;;;;;;;4.88;3.88;;;;;;;16.09;55.11;96997.63;5017158;28;20025;-30
2022/12/22 05:23:45;;;;;;;6.45;3.45;;;;;;;16.09;55.14;96997.63;5004122;28;20053;-30
2022/12/22 05:26:13;;;;;;;6.40;3.70;;;;;;;16.04;55.25;97002.94;5016744;28;20488;-30
2022/12/22 05:28:43;;;;;;;4.30;3.60;;;;;;;16.03;55.35;96999.44;4999520;28;20470;-30
2022/12/22 05:31:13;;;;;;;5.40;3.78;;;;;;;16.11;55.20;97000.69;5016449;28;20030;-30
2022/12/22 05:33:39;;;;;;;6.68;4.00;;;;;;;16.06;55.23;96995.81;5003739;28;20456;-30
2022/12/22 05:36:04;;;;;;;4.43;3.42;;;;;;;16.09;55.11;96991.41;5016924;28;20112;-30
2022/12/22 05:38:30;;;;;;;3.97;3.25;;;;;;;16.06;55.18;96998.56;5003816;28;20422;-30
2022/12/22 05:40:56;;;;;;;4.28;3.70;;;;;;;16.04;55.26;96995.50;4999396;28;20113;-30
2022/12/22 05:43:21;;;;;;;4.15;3.70;;;;;;;16.11;55.11;96997.19;5016466;28;20030;-30
2022/12/22 05:45:47;;;;;;;4.90;3.95;;;;;;;16.12;55.01;96993.25;5016636;28;20076;-30
2022/12/22 05:48:12;;;;;;;5.43;3.60;;;;;;;16.14;54.95;96991.59;5016481;28;20022;-30
2022/12/22 05:50:38;;;;;;;4.38;3.55;;;;;;;16.10;55.23;96987.44;5016520;28;20028;-30
2022/12/22 05:53:05;;;;;;;4.60;3.45;;;;;;;16.13;55.00;96984.59;5013746;28;20044;-30
2022/12/22 05:55:31;;;;;;;6.80;3.80;;;;;;;16.07;55.08;96977.41;5014730;28;20028;-30
2022/12/22 05:58:00;;;;;;;5.97;4.07;;;;;;;16.10;55.23;96976.50;5016177;28;20534;-30
2022/12/22 06:00:27;;;;;;;5.32;3.40;;;;;;;16.10;55.11;96982.75;5015815;28;20026;-30
2022/12/22 06:02:52;;;;;;;5.57;3.97;;;;;;;16.06;55.20;96990.34;5016548;28;20054;-30
2022/12/22 06:05:18;;;;;;;6.82;4.35;;;;;;;16.06;54.94;96993.06;5016139;28;20509;-30
2022/12/22 06:07:43;;;;;;;5.43;3.50;;;;;;;16.01;55.16;97001.84;5016191;28;20026;-30
2022/12/22 06:10:10;;;;;;;6.22;4.20;;;;;;;16.05;55.06;97007.19;5010653;28;20021;-30
2022/12/22 06:12:35;;;;;;;5.53;3.72;;;;;;;16.01;55.33;97007.31;5008548;28;20034;-30
2022/12/22 06:15:01;;;;;;;5.10;4.03;;;;;;;16.01;55.41;97020.25;5016307;28;20030;-30
2022/12/22 06:17:26;;;;;;;6.72;4.85;;;;;;;16.03;55.30;97013.13;5016351;28;20033;-30
2022/12/22 06:19:52;;;;;;;7.65;4.55;;;;;;;16.09;55.12;97013.28;5015869;28;20022;-30
2022/12/22 06:22:17;;;;;;;6.95;4.35;;;;;;;16.08;54.95;97012.53;5015990;28;20371;-30
2022/12/22 06:24:43;;;;;;;5.70;4.55;;;;;;;16.01;55.31;97017.50;5015855;28;20022;-30
2022/12/22 06:27:09;;;;;;;5.65;4.43;;;;;;;16.05;55.10;97024.38;5015441;28;20033;-30
2022/12/22 06:29:35;;;;;;;5.75;4.85;;;;;;;16.09;55.23;97014.03;5016024;28;20018;-30
2022/12/22 06:32:01;;;;;;;7.55;4.50;;;;;;;16.04;55.22;97006.44;5021787;28;20053;-30
2022/12/22 06:34:26;;;;;;;5.90;4.68;;;;;;;16.01;55.40;97015.53;5015892;28;20021;-30
2022/12/22 06:36:52;;;;;;;6.60;4.90;;;;;;;16.06;55.12;97017.69;5015995;28;20087;-30
2022/12/22 06:39:17;;;;;;;5.70;4.60;;;;;;;15.97;55.20;97028.56;4998047;28;20083;-30
2022/12/22 06:44:27;;;;;;;7.15;5.10;;;;;;;15.98;55.35;97032.06;5003486;28;20037;-30
2022/12/22 06:46:53;;;;;;;6.68;4.90;;;;;;;15.98;55.60;97027.38;5015322;28;20022;-30
2022/12/22 06:49:19;;;;;;;5.55;4.30;;;;;;;15.99;55.53;97033.59;5015488;28;20391;-30
2022/12/22 06:51:45;;;;;;;5.97;4.47;;;;;;;15.95;55.51;97022.03;5015190;28;20085;-30
2022/12/22 06:54:12;;;;;;;6.82;4.75;;;;;;;16.02;55.44;97025.28;5015451;28;20018;-30
2022/12/22 06:56:38;;;;;;;6.88;4.43;;;;;;;16.01;55.48;97026.47;5002095;28;20022;-30
2022/12/22 06:59:03;;;;;;;8.15;4.95;;;;;;;16.04;55.38;97028.31;5017669;28;20028;-30
2022/12/22 07:01:29;;;;;;;6.40;4.75;;;;;;;16.04;55.28;97033.03;5028204;28;20030;-30
2022/12/22 07:03:55;;;;;;;6.45;5.13;;;;;;;16.03;55.29;97031.50;4995908;28;20100;-30
2022/12/22 07:06:26;;;;;;;6.88;4.63;;;;;;;16.05;55.23;97029.09;4989416;28;20038;-30
2022/12/22 07:09:01;;;;;;;6.93;4.70;;;;;;;16.04;55.30;97038.50;4987365;28;20508;-30
2022/12/22 07:11:26;;;;;;;6.53;5.22;;;;;;;16.06;55.32;97053.28;4987378;28;20292;-30
2022/12/22 07:13:52;;;;;;;5.88;4.97;;;;;;;15.98;55.52;97060.19;4987630;28;20034;-30
2022/12/22 07:16:17;;;;;;;6.78;4.90;;;;;;;15.96;55.73;97059.09;4987801;28;20033;-30
2022/12/22 07:18:43;;;;;;;7.30;4.90;;;;;;;15.92;55.80;97048.31;4995472;28;20367;-30
2022/12/22 07:21:10;;;;;;;6.47;4.75;;;;;;;15.99;55.57;97044.53;4995009;28;20146;-30
2022/12/22 07:23:37;;;;;;;7.00;4.28;;;;;;;15.99;55.60;97037.09;5001649;28;20025;-30
2022/12/22 07:26:03;;;;;;;6.47;4.30;;;;;;;16.01;55.54;97023.75;5017288;28;20037;-30
2022/12/22 07:28:32;;;;;;;6.93;4.30;;;;;;;15.92;55.81;97031.13;5014327;28;20095;-30
2022/12/22 07:30:57;;;;;;;6.20;4.75;;;;;;;16.06;55.60;97025.16;5014667;28;20024;-30
2022/12/22 07:33:23;;;;;;;5.05;4.28;;;;;;;16.05;55.51;97029.84;5016128;28;20049;-30
2022/12/22 07:36:00;;;;;;;5.38;4.20;;;;;;;15.95;55.84;97031.00;5025971;28;20053;-30
2022/12/22 07:38:25;;;;;;;6.10;4.07;;;;;;;15.98;55.63;97043.00;5014830;28;20446;-30
2022/12/22 07:40:56;;;;;;;5.13;4.03;;;;;;;15.98;55.71;97049.25;4986839;28;20089;-30
2022/12/22 07:43:22;;;;;;;6.47;4.13;;;;;;;16.07;55.53;97051.31;5011800;28;20022;-30
2022/12/22 07:45:47;;;;;;;5.05;4.28;;;;;;;15.99;55.88;97048.03;5012295;28;20505;-30
2022/12/22 07:51:02;;;;;;;4.97;3.97;;;;;;;15.98;55.76;97046.50;5012446;28;20113;-30
2022/12/22 07:53:27;;;;;;;5.05;3.70;;;;;;;16.01;55.83;97044.88;5011918;28;20045;-30
2022/12/22 07:55:52;;;;;;;6.72;4.10;;;;;;;16.00;55.76;97048.81;5012195;28;20348;-30
2022/12/22 07:58:18;;;;;;;6.10;3.60;;;;;;;15.92;56.18;97053.78;5011410;28;20104;-30
2022/12/22 08:00:43;;;;;;;6.90;3.80;;;;;;;15.99;55.85;97060.97;5012223;28;20050;-30
2022/12/22 08:03:09;;;;;;;5.32;3.92;;;;;;;15.95;56.11;97058.34;5011569;28;20022;-30
2022/12/22 08:05:37;;;;;;;5.55;4.05;;;;;;;15.99;56.05;97052.75;5012088;28;20034;-30
2022/12/22 08:08:02;;;;;;;4.55;3.88;;;;;;;15.94;56.13;97039.66;5014154;28;20044;-30
2022/12/22 08:10:28;;;;;;;5.80;3.83;;;;;;;15.95;56.20;97036.47;5011719;28;20034;-30
2022/12/22 08:12:53;;;;;;;4.35;3.90;;;;;;;16.01;56.03;97040.16;5011497;28;20021;-30
2022/12/22 08:15:19;;;;;;;5.25;3.67;;;;;;;16.04;55.74;97044.75;5010911;28;20033;-30
2022/12/22 08:17:44;;;;;;;5.53;3.50;;;;;;;15.97;56.25;97039.50;5011513;28;20052;-30
2022/12/22 08:20:10;;;;;;;4.82;3.53;;;;;;;15.98;56.09;97034.81;5011465;28;20022;-30
2022/12/22 08:22:36;;;;;;;4.55;3.70;;;;;;;15.93;56.30;97047.09;5013644;28;20087;-30
2022/12/22 08:25:01;;;;;;;4.82;3.25;;;;;;;15.97;56.33;97036.00;5011790;28;20034;-30
2022/12/22 08:27:39;;;;;;;4.85;3.35;;;;;;;16.02;56.22;97038.94;5012352;28;20025;-30
2022/12/22 08:30:06;;;;;;;4.43;3.53;;;;;;;16.01;56.34;97040.16;5011665;28;20026;-30
2022/12/22 08:32:33;;;;;;;7.72;3.47;;;;;;;16.06;56.06;97042.31;5011218;28;20470;-30
2022/12/22 08:34:59;;;;;;;4.65;3.45;;;;;;;16.00;56.25;97038.63;5011633;28;20465;-30
2022/12/22 08:37:27;;;;;;;5.50;3.40;;;;;;;16.06;56.03;97045.06;5011723;28;20037;-30
2022/12/22 08:39:57;;;;;;;7.75;4.95;;;;;;;15.19;59.93;97044.22;5010720;28;20030;-29
2022/12/22 08:42:25;;;;;;;8.40;5.28;;;;;;;15.27;59.66;97038.06;5011079;28;20382;-31
2022/12/22 08:44:52;;;;;;;9.07;5.28;;;;;;;15.59;58.87;97042.44;5011350;28;20018;-31
2022/12/22 08:47:20;;;;;;;8.18;5.05;;;;;;;15.76;58.04;97037.56;5011487;28;20109;-31
2022/12/22 08:49:46;;;;;;;7.45;5.05;;;;;;;15.80;57.94;97032.75;5011562;28;20018;-31
2022/12/22 08:52:17;;;;;;;7.28;4.85;;;;;;;15.89;57.38;97035.53;5010353;28;20037;-31
2022/12/22 08:54:43;;;;;;;5.70;4.22;;;;;;;15.99;57.04;97033.59;5014148;28;20446;-31
2022/12/22 08:57:09;;;;;;;5.47;4.28;;;;;;;15.96;57.00;97043.47;5015152;28;20064;-30
2022/12/22 08:59:34;;;;;;;5.68;4.03;;;;;;;15.88;57.33;97030.50;5015088;28;20034;-32
2022/12/22 09:02:03;;;;;;;7.15;4.00;;;;;;;15.95;56.92;97031.00;5014954;28;20029;-31
2022/12/22 09:04:30;;;;;;;6.57;3.70;;;;;;;15.96;57.12;97031.75;4992039;28;20618;-31
2022/12/22 09:06:56;;;;;;;4.80;3.67;;;;;;;15.97;57.00;97033.28;5014646;28;20040;-31
2022/12/22 09:09:21;;;;;;;5.28;3.53;;;;;;;16.00;56.85;97033.16;5015713;28;20382;-32
2022/12/22 09:11:47;;;;;;;5.80;3.55;;;;;;;15.96;56.84;97043.47;5014908;28;20037;-31
2022/12/22 09:14:13;;;;;;;5.90;3.40;;;;;;;15.94;57.22;97045.91;5013288;28;20119;-31
2022/12/22 09:16:39;;;;;;;3.33;3.00;;;;;;;16.01;57.03;97047.59;5014568;28;20116;-31
2022/12/22 09:19:05;;;;;;;5.68;3.05;;;;;;;16.02;56.84;97046.41;5014770;28;20108;-31
2022/12/22 09:21:31;;;;;;;3.90;3.50;;;;;;;16.07;56.66;97060.25;5014833;28;20500;-31
2022/12/22 09:23:57;;;;;;;3.90;2.88;;;;;;;16.05;56.73;97054.47;5015187;28;20034;-31
2022/12/22 09:26:25;;;;;;;4.07;2.88;;;;;;;16.03;56.48;97059.63;5013005;28;20497;-31
2022/12/22 09:28:51;;;;;;;4.20;3.30;;;;;;;16.02;56.85;97071.00;5014790;28;20056;-31
2022/12/22 09:31:18;;;;;;;4.80;2.90;;;;;;;16.04;56.74;97061.16;5016387;28;20017;-31
2022/12/22 09:33:44;;;;;;;4.50;2.75;;;;;;;16.04;56.76;97065.88;5016572;28;20049;-31
2022/12/22 09:36:12;;;;;;;3.75;2.80;;;;;;;16.02;56.81;97063.56;5016434;28;20458;-31
2022/12/22 09:38:39;;;;;;;3.22;2.80;;;;;;;16.03;56.84;97067.84;5017114;28;20510;-31
2022/12/22 09:41:18;;;;;;;3.50;2.40;;;;;;;16.02;56.86;97068.28;5016699;28;20386;-31
2022/12/22 09:43:45;;;;;;;4.15;2.53;;;;;;;16.03;56.71;97064.34;5016835;28;20021;-31
2022/12/22 09:46:21;;;;;;;2.80;2.47;;;;;;;16.01;56.85;97075.72;5016569;28;20025;-31
2022/12/22 09:48:47;;;;;;;4.15;2.42;;;;;;;16.00;56.92;97076.94;4999196;28;20164;-31
2022/12/22 09:51:14;;;;;;;3.42;2.70;;;;;;;16.00;56.87;97078.91;5016822;28;20018;-31
2022/12/22 09:53:41;;;;;;;3.38;2.70;;;;;;;16.03;56.93;97065.09;5016877;28;20041;-30
2022/12/22 09:56:13;;;;;;;4.03;2.60;;;;;;;16.11;56.78;97060.13;5016262;28;20022;-30
2022/12/22 09:58:40;;;;;;;4.25;3.00;;;;;;;16.02;57.08;97062.81;4998869;28;20037;-30
2022/12/22 10:01:30;;;;;;;3.35;2.70;;;;;;;16.06;56.89;97061.47;5016026;28;20101;-30
2022/12/22 10:04:05;;;;;;;3.10;2.70;;;;;;;16.11;56.57;97063.63;5016079;28;20025;-30
2022/12/22 10:06:39;;;;;;;3.25;2.85;;;;;;;16.04;57.03;97063.91;5016112;28;20383;-30
2022/12/22 10:09:18;;;;;;;3.58;2.70;;;;;;;16.01;57.03;97067.50;5016506;28;20029;-30
2022/12/22 10:11:59;;;;;;;4.22;2.63;;;;;;;16.04;56.82;97071.34;5016319;28;20109;-30
2022/12/22 10:14:32;;;;;;;2.75;2.15;;;;;;;16.06;57.11;97066.19;4998334;28;20029;-30
2022/12/22 10:17:22;;;;;;;3.13;2.60;;;;;;;15.80;57.58;97069.06;5015486;28;20037;-30
2022/12/22 10:19:50;;;;;;;3.15;2.70;;;;;;;15.96;57.06;97062.59;5016041;28;20143;-30
2022/12/22 10:22:25;;;;;;;3.70;2.65;;;;;;;16.02;57.05;97073.75;5017732;28;20486;-30
2022/12/22 10:24:51;;;;;;;2.55;2.00;;;;;;;16.03;57.09;97067.84;5009995;28;20037;-30
2022/12/22 10:27:18;;;;;;;4.60;2.38;;;;;;;16.05;56.88;97059.19;5016170;28;20371;-30
2022/12/22 10:29:44;;;;;;;2.45;2.00;;;;;;;16.01;57.02;97062.03;5015823;28;20067;-30
2022/12/22 10:32:15;;;;;;;5.43;2.28;;;;;;;16.06;56.77;97058.75;5015993;28;20128;-30
2022/12/22 10:35:03;;;;;;;4.07;2.33;;;;;;;16.03;56.88;97050.66;5014128;28;20026;-30
2022/12/22 10:37:37;;;;;;;2.85;2.15;;;;;;;16.02;57.06;97052.63;5007103;28;20083;-32
2022/12/22 10:40:40;;;;;;;3.22;2.50;;;;;;;16.02;56.94;97046.41;5015308;28;20029;-31
2022/12/22 10:43:06;;;;;;;3.58;2.20;;;;;;;16.06;56.68;97047.78;4996587;28;20092;-30
2022/12/22 10:45:32;;;;;;;3.03;2.30;;;;;;;16.08;56.86;97039.88;5015356;28;20025;-30
2022/12/22 10:47:57;;;;;;;3.40;2.05;;;;;;;16.10;56.66;97036.69;5015461;28;20116;-30
2022/12/22 10:50:23;;;;;;;2.70;2.08;;;;;;;16.06;57.05;97025.91;5015623;28;20075;-30
2022/12/22 10:52:54;;;;;;;4.38;2.10;;;;;;;15.99;57.17;97017.94;5015261;28;20026;-30
2022/12/22 10:55:21;;;;;;;2.40;2.08;;;;;;;16.00;57.16;97010.50;5015814;28;20064;-30
2022/12/22 10:57:48;;;;;;;2.58;2.08;;;;;;;16.05;56.94;97002.50;5015409;28;20378;-30
2022/12/22 11:00:28;;;;;;;3.05;2.00;;;;;;;16.02;56.86;96992.44;5015284;28;20045;-30
2022/12/22 11:02:56;;;;;;;2.33;1.90;;;;;;;16.02;57.01;96984.22;5015783;28;20156;-30
2022/12/22 11:05:22;;;;;;;4.18;2.05;;;;;;;16.01;56.95;96984.69;5015114;28;20105;-30
2022/12/22 11:07:50;;;;;;;5.47;2.05;;;;;;;16.03;57.26;96976.78;5015065;28;20062;-30
2022/12/22 11:10:32;;;;;;;4.05;1.90;;;;;;;16.01;57.22;96965.53;5015258;28;20014;-30
2022/12/22 11:13:40;;;;;;;2.85;1.90;;;;;;;15.99;57.13;96955.03;5014824;28;20022;-32
2022/12/22 11:16:46;;;;;;;2.75;2.00;;;;;;;16.02;57.15;96959.59;5014394;28;20022;-31
2022/12/22 11:19:36;;;;;;;2.58;2.03;;;;;;;16.03;57.19;96954.91;4997012;28;20026;-31
2022/12/22 11:22:26;;;;;;;3.15;2.13;;;;;;;16.03;57.29;96949.44;5014926;28;20032;-31
2022/12/22 11:25:29;;;;;;;2.97;2.10;;;;;;;16.03;57.16;96938.47;5014898;28;20522;-31
2022/12/22 11:28:32;;;;;;;2.83;1.83;;;;;;;15.98;57.24;96947.25;5014647;28;20061;-31
2022/12/22 11:31:22;;;;;;;3.45;2.25;;;;;;;16.03;57.09;96950.19;5003027;28;20105;-31
2022/12/22 11:34:08;;;;;;;2.58;2.00;;;;;;;16.01;57.28;96949.13;5001380;28;20033;-31
2022/12/22 11:37:07;;;;;;;4.85;2.33;;;;;;;16.03;57.27;96949.44;5014734;28;20030;-31
2022/12/22 11:39:39;;;;;;;4.35;2.20;;;;;;;16.00;57.39;96953.81;4989286;28;20044;-31
2022/12/22 11:42:32;;;;;;;2.78;1.90;;;;;;;16.05;57.45;96950.50;5015008;28;20022;-31
2022/12/22 11:45:00;;;;;;;4.53;1.92;;;;;;;16.05;57.16;96961.44;5014190;28;20022;-31
2022/12/22 11:47:34;;;;;;;3.03;2.20;;;;;;;16.01;57.40;96962.78;4997226;28;20026;-31
2022/12/22 11:50:20;;;;;;;2.92;2.03;;;;;;;15.95;57.53;96954.38;5013973;28;20014;-31
2022/12/22 11:53:23;;;;;;;3.38;2.45;;;;;;;15.97;57.62;96960.19;5007143;28;20041;-31
2022/12/22 11:56:10;;;;;;;3.63;2.13;;;;;;;16.08;57.24;96957.03;5014227;28;20026;-31
2022/12/22 11:59:13;;;;;;;3.08;2.20;;;;;;;16.07;57.27;96961.75;5014397;28;20032;-31
2022/12/22 12:02:10;;;;;;;2.92;2.30;;;;;;;16.01;57.70;96966.28;5003001;28;20065;-31
2022/12/22 12:05:00;;;;;;;3.08;1.90;;;;;;;16.08;57.11;96946.84;5014240;28;20041;-31
2022/12/22 12:08:21;;;;;;;2.65;2.08;;;;;;;16.10;57.51;96944.44;5014147;28;20018;-31
2022/12/22 12:10:53;;;;;;;3.08;2.05;;;;;;;16.10;57.46;96938.19;4935384;28;20042;-31
2022/12/22 12:13:47;;;;;;;4.05;2.90;;;;;;;15.99;58.28;96935.88;4972970;28;20035;-31
2022/12/22 12:16:23;;;;;;;5.35;2.58;;;;;;;16.01;58.13;96935.44;4972969;28;20049;-31
2022/12/22 12:19:16;;;;;;;3.22;2.60;;;;;;;16.10;57.53;96921.78;4972534;28;20030;-31
2022/12/22 12:21:53;;;;;;;4.65;3.20;;;;;;;15.95;58.40;96913.34;4974097;28;20062;-31
2022/12/22 12:24:39;;;;;;;4.47;2.58;;;;;;;15.86;58.66;96909.81;4973134;28;20491;-31
2022/12/22 12:27:31;;;;;;;6.10;3.38;;;;;;;15.76;60.26;96909.03;4972753;28;20067;-31
2022/12/22 12:30:20;;;;;;;2.80;2.17;;;;;;;15.56;59.89;96900.44;4972646;28;20030;-31
2022/12/22 12:32:58;;;;;;;3.90;2.75;;;;;;;15.90;58.70;96913.19;4956583;28;20051;-31
2022/12/22 12:35:42;;;;;;;4.80;2.72;;;;;;;16.03;58.27;96917.38;4972959;28;20026;-31
2022/12/22 12:38:16;;;;;;;3.70;2.63;;;;;;;16.01;58.04;96914.31;4972369;28;20038;-31
2022/12/22 12:41:03;;;;;;;2.47;2.20;;;;;;;16.12;57.67;96903.72;4972805;28;20023;-31
2022/12/22 12:43:28;;;;;;;3.60;2.35;;;;;;;16.06;57.87;96905.53;4975064;28;20403;-31
2022/12/22 12:45:54;;;;;;;3.05;2.13;;;;;;;15.90;58.54;96913.19;5006464;28;20032;-31
2022/12/22 12:48:19;;;;;;;3.45;2.58;;;;;;;16.05;57.82;96914.19;5013710;28;20022;-31
2022/12/22 12:50:48;;;;;;;3.90;2.28;;;;;;;16.05;58.06;96906.75;5013482;28;20041;-31
2022/12/22 12:53:15;;;;;;;4.18;2.80;;;;;;;16.04;58.03;96916.16;5013281;28;20024;-31
2022/12/22 12:55:50;;;;;;;4.10;2.70;;;;;;;16.01;58.23;96924.50;5013592;28;20054;-31
2022/12/22 12:58:34;;;;;;;3.70;2.50;;;;;;;16.01;58.26;96932.69;5001705;28;20076;-31
2022/12/22 13:01:01;;;;;;;3.17;2.58;;;;;;;16.05;57.91;96923.16;5013614;28;20022;-31
2022/12/22 13:03:27;;;;;;;3.70;2.72;;;;;;;15.94;58.40;96925.53;5013414;28;20029;-31
2022/12/22 13:05:55;;;;;;;3.90;2.45;;;;;;;16.08;58.04;96932.41;5013577;28;20458;-31
2022/12/22 13:08:43;;;;;;;4.72;2.40;;;;;;;16.12;57.95;96925.59;5013464;28;20025;-31
2022/12/22 13:11:09;;;;;;;3.78;2.55;;;;;;;16.07;58.00;96917.97;5013459;28;20018;-31
2022/12/22 13:13:34;;;;;;;3.40;2.70;;;;;;;15.91;58.37;96928.41;5013287;28;20462;-31
2022/12/22 13:16:02;;;;;;;3.40;2.30;;;;;;;15.88;58.91;96926.56;4995874;28;20108;-31
2022/12/22 13:18:28;;;;;;;4.55;2.45;;;;;;;15.89;58.90;96917.16;4995538;28;20129;-31
2022/12/22 13:21:11;;;;;;;4.95;2.75;;;;;;;16.04;58.40;96912.66;5013325;28;20096;-31
2022/12/22 13:23:44;;;;;;;4.03;2.55;;;;;;;15.94;58.56;96920.06;5013179;28;20076;-31
2022/12/22 13:26:15;;;;;;;4.83;2.77;;;;;;;16.06;58.37;96921.94;5013242;28;20084;-32
2022/12/22 13:28:46;;;;;;;4.03;2.78;;;;;;;15.91;59.00;96923.69;5013251;28;20022;-31
2022/12/22 13:31:15;;;;;;;5.97;3.08;;;;;;;15.93;59.04;96917.78;5013085;28;20032;-31
2022/12/22 13:33:43;;;;;;;3.70;2.47;;;;;;;15.96;58.75;96916.84;5012993;28;20026;-31
2022/12/22 13:36:18;;;;;;;5.15;2.88;;;;;;;15.94;58.95;96922.03;5013380;28;20032;-31
2022/12/22 13:38:43;;;;;;;4.50;2.92;;;;;;;16.02;58.75;96921.31;5013496;28;20430;-31
2022/12/22 13:41:18;;;;;;;3.88;2.53;;;;;;;16.08;58.88;96914.03;5016475;28;20022;-31
2022/12/22 13:43:52;;;;;;;3.97;2.78;;;;;;;16.09;58.45;96909.31;5016632;28;20478;-31
2022/12/22 13:46:17;;;;;;;4.45;3.00;;;;;;;16.10;58.51;96910.84;4999128;28;20394;-31
2022/12/22 13:48:46;;;;;;;5.35;3.70;;;;;;;16.02;58.90;96909.59;5016724;28;20030;-31
2022/12/22 13:51:27;;;;;;;5.25;3.88;;;;;;;16.00;58.81;96907.31;5016034;28;20026;-32
2022/12/22 13:54:02;;;;;;;4.03;3.58;;;;;;;15.80;59.39;96904.19;5016224;28;20021;-31
2022/12/22 13:56:47;;;;;;;6.30;3.92;;;;;;;16.03;58.96;96900.94;5002848;28;20061;-31
2022/12/22 13:59:38;;;;;;;5.28;4.25;;;;;;;16.03;59.11;96909.16;5016032;28;20022;-31
2022/12/22 14:02:10;;;;;;;6.65;4.18;;;;;;;15.96;59.10;96906.69;5015932;28;20033;-31
2022/12/22 14:04:37;;;;;;;7.85;4.20;;;;;;;16.01;59.07;96902.59;5015531;28;20022;-31
2022/12/22 14:07:14;;;;;;;5.78;4.05;;;;;;;16.04;58.90;96912.66;5016250;28;20034;-31
2022/12/22 14:09:47;;;;;;;7.03;4.10;;;;;;;15.97;59.25;96897.25;5016519;28;20025;-31
2022/12/22 14:12:40;;;;;;;5.43;4.25;;;;;;;16.00;59.20;96896.38;5016260;28;20026;-31
2022/12/22 14:15:15;;;;;;;6.28;4.35;;;;;;;16.03;58.91;96900.94;5010997;28;20034;-31
2022/12/22 14:17:41;;;;;;;5.57;4.00;;;;;;;16.06;58.81;96911.00;5016005;28;20038;-31
2022/12/22 14:20:35;;;;;;;5.45;4.00;;;;;;;16.11;58.83;96901.41;5015833;28;20045;-31
2022/12/22 14:23:03;;;;;;;6.68;4.13;;;;;;;16.04;58.76;96898.97;5000884;28;20038;-31
2022/12/22 14:25:36;;;;;;;4.85;3.97;;;;;;;16.06;58.78;96900.06;5020884;28;20036;-31
2022/12/22 14:28:04;;;;;;;5.75;4.32;;;;;;;16.03;58.89;96898.22;5022780;28;20045;-31
2022/12/22 14:30:39;;;;;;;6.13;4.22;;;;;;;16.11;58.63;96896.72;5003385;28;20116;-31
2022/12/22 14:33:28;;;;;;;5.72;4.50;;;;;;;16.06;58.84;96889.09;5015877;28;20108;-31
2022/12/22 14:36:05;;;;;;;5.65;4.18;;;;;;;16.06;58.63;96886.38;5015936;28;20021;-31
2022/12/22 14:38:39;;;;;;;6.55;4.60;;;;;;;16.05;58.76;96871.16;5015415;28;20033;-31
2022/12/22 14:44:06;;;;;;;5.22;4.55;;;;;;;16.05;58.74;96870.41;5015766;28;20084;-31
2022/12/22 14:46:32;;;;;;;6.05;4.40;;;;;;;16.06;58.60;96856.28;5015648;28;20022;-31
2022/12/22 14:48:58;;;;;;;6.43;4.85;;;;;;;16.10;58.45;96867.06;5015806;28;20041;-31
2022/12/22 14:51:25;;;;;;;7.28;4.43;;;;;;;16.06;58.80;96872.69;5014296;28;20072;-32
2022/12/22 14:53:57;;;;;;;6.25;4.90;;;;;;;16.04;58.69;96869.66;5015580;28;20029;-32
2022/12/22 14:56:25;;;;;;;6.18;5.13;;;;;;;16.03;58.97;96867.34;5015198;28;20378;-31
2022/12/22 14:59:06;;;;;;;7.03;5.55;;;;;;;16.08;58.73;96862.03;5015487;28;20026;-32
2022/12/22 15:01:31;;;;;;;6.65;5.40;;;;;;;16.08;58.79;96864.00;5015465;28;20077;-31
2022/12/22 15:03:59;;;;;;;5.97;5.25;;;;;;;16.03;58.73;96862.66;5015048;28;20072;-31
2022/12/22 15:06:28;;;;;;;6.63;5.40;;;;;;;16.06;58.80;96863.72;4997750;28;20061;-31
2022/12/22 15:09:14;;;;;;;6.30;5.20;;;;;;;16.04;58.68;96864.16;5015590;28;20123;-31
2022/12/22 15:12:04;;;;;;;6.68;5.57;;;;;;;15.99;58.90;96862.00;5007623;28;20164;-31
2022/12/22 15:14:33;;;;;;;7.35;5.70;;;;;;;16.03;58.82;96857.19;5009336;28;20038;-32
2022/12/22 15:17:00;;;;;;;9.18;5.63;;;;;;;16.02;58.81;96872.06;5014763;28;20036;-31
2022/12/22 15:19:30;;;;;;;8.63;6.22;;;;;;;16.01;58.97;96869.78;5014790;28;20414;-31
2022/12/22 15:21:55;;;;;;;7.60;5.70;;;;;;;16.02;58.87;96877.53;5014606;28;20022;-31
2022/12/22 15:24:21;;;;;;;8.63;5.82;;;;;;;16.02;58.94;96871.31;5014742;28;20490;-31
2022/12/22 15:26:46;;;;;;;8.25;6.20;;;;;;;16.04;58.78;96883.31;5014504;28;20029;-31
2022/12/22 15:29:12;;;;;;;8.35;6.25;;;;;;;16.06;58.79;96883.63;5005229;28;20022;-31
2022/12/22 15:31:40;;;;;;;9.43;7.38;;;;;;;16.08;58.62;96891.38;5008115;28;20042;-31
2022/12/22 15:34:26;;;;;;;9.73;6.70;;;;;;;16.05;58.60;96906.75;5004606;28;20490;-31